createdAt,value
2024-01-12T00:02:16.711Z,97.50
2024-01-12T00:04:43.847Z,97.60
2024-01-12T00:07:11.029Z,97.70
2024-01-12T00:09:38.149Z,97.90
2024-01-12T00:12:05.757Z,98.00
2024-01-12T00:14:32.836Z,98.20
2024-01-12T00:16:59.920Z,98.30
2024-01-12T00:19:26.998Z,98.50
2024-01-12T00:21:55.254Z,98.50
2024-01-12T00:24:22.324Z,98.60
2024-01-12T00:26:50.346Z,98.70
2024-01-12T00:29:17.564Z,98.80
2024-01-12T00:31:44.908Z,99.10
2024-01-12T00:34:12.014Z,99.20
2024-01-12T00:36:39.085Z,99.20
2024-01-12T00:39:06.475Z,99.10
2024-01-12T00:41:33.607Z,99.20
2024-01-12T00:44:00.783Z,99.20
2024-01-12T00:46:28.117Z,99.20
2024-01-12T00:48:55.336Z,99.20
2024-01-12T00:51:22.506Z,99.10
2024-01-12T00:53:49.645Z,99.00
2024-01-12T00:56:17.073Z,99.10
2024-01-12T00:58:44.252Z,99.20
2024-01-12T01:01:11.495Z,99.20
2024-01-12T01:03:38.983Z,99.20
2024-01-12T01:06:06.809Z,99.10
2024-01-12T01:08:34.057Z,99.10
2024-01-12T01:11:01.192Z,99.20
2024-01-12T01:13:28.282Z,99.30
2024-01-12T01:15:55.907Z,99.30
2024-01-12T01:18:23.159Z,99.30
2024-01-12T01:20:50.696Z,99.30
2024-01-12T01:23:18.336Z,99.30
2024-01-12T01:25:45.589Z,99.30
2024-01-12T01:28:12.674Z,99.20
2024-01-12T01:30:39.910Z,99.20
2024-01-12T01:33:07.159Z,99.10
2024-01-12T01:35:34.847Z,99.10
2024-01-12T01:38:01.948Z,99.10
2024-01-12T01:40:29.092Z,99.50
2024-01-12T01:42:56.393Z,99.70
2024-01-12T01:45:23.758Z,99.70
2024-01-12T01:47:51.031Z,99.70
2024-01-12T01:50:18.539Z,99.90
2024-01-12T01:52:46.526Z,99.90
2024-01-12T01:55:15.468Z,99.90
2024-01-12T01:57:43.485Z,99.90
2024-01-12T02:00:12.361Z,99.90
2024-01-12T02:02:40.786Z,99.90
2024-01-12T02:05:09.279Z,99.90
2024-01-12T02:07:38.816Z,99.90
2024-01-12T02:10:07.255Z,99.90
2024-01-12T02:12:38.281Z,99.90
2024-01-12T02:15:10.717Z,99.90
2024-01-12T02:17:38.197Z,99.90
2024-01-12T02:20:06.232Z,99.90
2024-01-12T02:22:33.371Z,99.90
2024-01-12T02:25:02.584Z,99.90
2024-01-12T02:27:29.787Z,99.90
2024-01-12T02:29:58.480Z,99.90
2024-01-12T02:32:25.770Z,99.90
2024-01-12T02:34:52.972Z,99.90
2024-01-12T02:37:20.137Z,99.90
2024-01-12T02:39:48.016Z,99.90
2024-01-12T02:42:15.089Z,99.90
2024-01-12T02:44:42.695Z,99.90
2024-01-12T02:47:09.992Z,99.90
2024-01-12T02:49:37.083Z,99.90
2024-01-12T02:52:04.373Z,99.90
2024-01-12T02:54:33.063Z,99.90
2024-01-12T02:57:00.290Z,99.90
2024-01-12T02:59:27.409Z,99.90
2024-01-12T03:01:54.545Z,99.90
2024-01-12T03:04:21.782Z,99.90
2024-01-12T03:06:48.953Z,99.90
2024-01-12T03:09:16.054Z,99.90
2024-01-12T03:11:43.240Z,99.90
2024-01-12T03:14:10.906Z,99.90
2024-01-12T03:16:37.969Z,99.90
2024-01-12T03:19:05.212Z,99.90
2024-01-12T03:21:32.567Z,99.90
2024-01-12T03:23:59.767Z,99.90
2024-01-12T03:26:27.232Z,99.90
2024-01-12T03:28:54.481Z,99.90
2024-01-12T03:31:22.739Z,99.90
2024-01-12T03:33:50.125Z,99.90
2024-01-12T03:36:17.723Z,99.90
2024-01-12T03:38:45.888Z,99.90
2024-01-12T03:41:13.058Z,99.90
2024-01-12T03:43:40.253Z,99.90
2024-01-12T03:46:07.454Z,99.90
2024-01-12T03:48:34.815Z,99.90
2024-01-12T03:51:02.077Z,99.90
2024-01-12T03:53:29.448Z,99.90
2024-01-12T03:55:56.573Z,99.90
2024-01-12T03:58:23.927Z,99.90
2024-01-12T04:00:51.074Z,99.90
2024-01-12T04:03:18.290Z,99.90
2024-01-12T04:05:45.552Z,99.90
2024-01-12T04:08:12.703Z,99.90
2024-01-12T04:10:39.768Z,99.90
2024-01-12T04:13:06.827Z,99.90
2024-01-12T04:15:33.923Z,99.90
2024-01-12T04:18:01.092Z,99.90
2024-01-12T04:20:28.769Z,99.90
2024-01-12T04:22:55.946Z,99.90
2024-01-12T04:25:23.031Z,99.90
2024-01-12T04:27:50.091Z,99.90
2024-01-12T04:30:17.331Z,99.90
2024-01-12T04:32:44.624Z,99.90
2024-01-12T04:35:12.283Z,99.90
2024-01-12T04:37:39.395Z,99.90
2024-01-12T04:40:08.051Z,99.90
2024-01-12T04:42:35.286Z,99.90
2024-01-12T04:45:02.598Z,99.90
2024-01-12T04:47:29.868Z,99.90
2024-01-12T04:49:57.052Z,99.90
2024-01-12T04:52:24.202Z,99.90
2024-01-12T04:54:51.268Z,99.90
2024-01-12T04:57:18.373Z,99.90
2024-01-12T04:59:45.575Z,99.90
2024-01-12T05:02:12.719Z,99.90
2024-01-12T05:04:39.826Z,99.90
2024-01-12T05:07:07.007Z,99.90
2024-01-12T05:09:34.124Z,99.90
2024-01-12T05:12:05.698Z,99.90
2024-01-12T05:14:33.561Z,99.90
2024-01-12T05:17:00.691Z,99.90
2024-01-12T05:19:29.677Z,99.90
2024-01-12T05:21:56.798Z,99.90
2024-01-12T05:24:23.933Z,99.90
2024-01-12T05:26:51.406Z,99.90
2024-01-12T05:29:18.611Z,99.90
2024-01-12T05:31:45.810Z,99.90
2024-01-12T05:34:13.012Z,99.90
2024-01-12T05:36:40.209Z,99.90
2024-01-12T05:39:07.351Z,99.90
2024-01-12T05:41:34.777Z,99.90
2024-01-12T05:44:02.203Z,99.90
2024-01-12T05:46:29.359Z,99.90
2024-01-12T05:48:56.610Z,99.90
2024-01-12T05:51:23.840Z,99.90
2024-01-12T05:53:50.986Z,99.90
2024-01-12T05:56:18.170Z,99.90
2024-01-12T05:58:45.325Z,99.90
2024-01-12T06:01:13.389Z,99.90
2024-01-12T06:03:40.719Z,99.90
2024-01-12T06:06:07.995Z,99.90
2024-01-12T06:08:35.250Z,99.90
2024-01-12T06:11:02.410Z,99.90
2024-01-12T06:13:29.541Z,99.90
2024-01-12T06:15:57.710Z,99.90
2024-01-12T06:18:25.515Z,99.90
2024-01-12T06:20:52.893Z,99.90
2024-01-12T06:23:20.153Z,99.90
2024-01-12T06:25:47.261Z,99.90
2024-01-12T06:28:14.348Z,99.90
2024-01-12T06:30:41.443Z,99.90
2024-01-12T06:33:08.715Z,99.90
2024-01-12T06:35:36.538Z,99.90
2024-01-12T06:38:03.812Z,99.90
2024-01-12T06:40:32.254Z,99.90
2024-01-12T06:42:59.441Z,99.90
2024-01-12T06:45:26.505Z,99.90
2024-01-12T06:47:53.812Z,99.90
2024-01-12T06:50:21.091Z,99.90
2024-01-12T06:52:48.331Z,99.90
2024-01-12T06:55:15.594Z,99.90
2024-01-12T06:57:45.029Z,99.90
2024-01-12T07:00:12.631Z,99.90
2024-01-12T07:02:39.940Z,99.90
2024-01-12T07:05:07.714Z,99.90
2024-01-12T07:07:34.833Z,99.90
2024-01-12T07:10:01.921Z,99.90
2024-01-12T07:12:28.983Z,99.90
2024-01-12T07:14:56.155Z,99.90
2024-01-12T07:17:23.378Z,99.90
2024-01-12T07:19:50.597Z,99.90
2024-01-12T07:22:17.780Z,99.90
2024-01-12T07:24:45.027Z,99.90
2024-01-12T07:27:12.228Z,99.90
2024-01-12T07:29:39.407Z,99.90
2024-01-12T07:32:06.743Z,99.90
2024-01-12T07:34:33.999Z,99.90
2024-01-12T07:37:01.952Z,99.90
2024-01-12T07:39:29.101Z,99.90
2024-01-12T07:41:56.656Z,99.90
2024-01-12T07:44:23.816Z,99.90
2024-01-12T07:46:50.988Z,99.90
2024-01-12T07:49:18.117Z,99.90
2024-01-12T07:51:45.950Z,99.90
2024-01-12T07:54:13.079Z,99.90
2024-01-12T07:56:40.237Z,99.90
2024-01-12T07:59:07.422Z,99.90
2024-01-12T08:01:37.119Z,99.90
2024-01-12T08:04:06.473Z,99.90
2024-01-12T08:06:33.671Z,99.90
2024-01-12T08:09:00.844Z,99.90
2024-01-12T08:11:35.749Z,99.90
2024-01-12T08:14:07.880Z,99.90
2024-01-12T08:16:35.113Z,99.90
2024-01-12T08:19:02.245Z,99.90
2024-01-12T08:21:37.661Z,99.90
2024-01-12T08:24:12.534Z,99.90
2024-01-12T08:26:39.720Z,99.90
2024-01-12T08:29:06.893Z,99.90
2024-01-12T08:31:34.025Z,99.90
2024-01-12T08:34:01.295Z,99.90
2024-01-12T08:36:28.497Z,99.90
2024-01-12T08:38:55.653Z,99.90
2024-01-12T08:41:23.086Z,99.90
2024-01-12T08:43:53.961Z,99.90
2024-01-12T08:46:21.484Z,99.90
2024-01-12T08:48:50.412Z,99.90
2024-01-12T08:51:17.868Z,99.90
2024-01-12T08:53:45.086Z,99.90
2024-01-12T08:56:12.243Z,99.00
2024-01-12T08:58:39.541Z,94.60
2024-01-12T09:01:07.483Z,87.40
2024-01-12T09:03:34.765Z,89.40
2024-01-12T09:06:02.244Z,80.30
2024-01-12T09:08:29.547Z,84.40
2024-01-12T09:10:56.696Z,85.70
2024-01-12T09:13:23.924Z,88.00
2024-01-12T09:15:50.985Z,90.10
2024-01-12T09:18:18.177Z,90.90
2024-01-12T09:20:45.311Z,91.50
2024-01-12T09:23:12.402Z,92.00
2024-01-12T09:25:39.479Z,92.30
2024-01-12T09:28:06.680Z,92.60
2024-01-12T09:30:33.821Z,92.60
2024-01-12T09:33:01.157Z,92.10
2024-01-12T09:35:28.457Z,92.30
2024-01-12T09:37:55.685Z,92.50
2024-01-12T09:40:23.272Z,93.00
2024-01-12T09:42:50.628Z,93.40
2024-01-12T09:45:23.876Z,93.70
2024-01-12T09:47:53.869Z,93.90
2024-01-12T09:50:25.355Z,94.30
2024-01-12T09:52:52.922Z,94.30
2024-01-12T09:55:20.347Z,94.50
2024-01-12T09:57:47.991Z,94.70
2024-01-12T10:00:16.022Z,94.90
2024-01-12T10:02:43.570Z,95.10
2024-01-12T10:05:10.869Z,95.20
2024-01-12T10:07:39.110Z,95.40
2024-01-12T10:10:07.475Z,95.60
2024-01-12T10:12:34.905Z,95.80
2024-01-12T10:15:03.665Z,95.90
2024-01-12T10:17:32.533Z,96.10
2024-01-12T10:20:00.207Z,96.30
2024-01-12T10:22:27.865Z,96.50
2024-01-12T10:25:02.732Z,96.70
2024-01-12T10:27:30.270Z,96.80
2024-01-12T10:29:57.967Z,97.00
2024-01-12T10:32:28.768Z,97.10
2024-01-12T10:34:56.036Z,97.40
2024-01-12T10:37:23.375Z,97.50
2024-01-12T10:39:51.479Z,97.60
2024-01-12T10:42:21.796Z,97.70
2024-01-12T10:44:52.365Z,97.80
2024-01-12T10:47:22.450Z,98.00
2024-01-12T10:49:52.016Z,98.10
2024-01-12T10:52:50.229Z,98.00
2024-01-12T10:55:22.074Z,98.10
2024-01-12T10:57:49.372Z,98.20
2024-01-12T11:00:17.970Z,98.30
2024-01-12T11:02:48.701Z,98.60
2024-01-12T11:05:17.018Z,98.70
2024-01-12T11:07:46.152Z,98.90
2024-01-12T11:10:14.616Z,99.00
2024-01-12T11:12:43.532Z,99.10
2024-01-12T11:15:10.891Z,99.20
2024-01-12T11:17:38.629Z,99.30
2024-01-12T11:20:06.102Z,92.50
2024-01-12T11:22:33.560Z,93.40
2024-01-12T11:25:00.998Z,94.80
2024-01-12T11:27:35.433Z,94.20
2024-01-12T11:30:04.905Z,94.40
2024-01-12T11:32:32.962Z,94.90
2024-01-12T11:35:21.494Z,95.10
2024-01-12T11:38:03.696Z,94.70
2024-01-12T11:40:31.443Z,94.40
2024-01-12T11:43:01.097Z,94.20
2024-01-12T11:45:33.385Z,94.40
2024-01-12T11:48:03.390Z,94.50
2024-01-12T11:50:30.748Z,94.60
2024-01-12T11:53:02.237Z,94.50
2024-01-12T11:55:29.777Z,77.60
2024-01-12T11:57:57.354Z,72.90
2024-01-12T12:00:25.071Z,80.60
2024-01-12T12:02:55.648Z,84.80
2024-01-12T12:05:25.901Z,90.00
2024-01-12T12:07:53.322Z,91.70
2024-01-12T12:10:26.775Z,92.10
2024-01-12T12:13:00.501Z,92.10
2024-01-12T12:15:27.715Z,92.00
2024-01-12T12:17:56.262Z,92.10
2024-01-12T12:20:25.582Z,92.10
2024-01-12T12:22:54.305Z,92.10
2024-01-12T12:25:21.424Z,92.10
2024-01-12T12:27:48.681Z,92.20
2024-01-12T12:30:17.840Z,91.80
2024-01-12T12:32:46.874Z,92.00
2024-01-12T12:35:19.099Z,92.30
2024-01-12T12:37:50.342Z,92.30
2024-01-12T12:40:18.049Z,92.60
2024-01-12T12:42:46.864Z,92.70
2024-01-12T12:45:14.762Z,92.60
2024-01-12T12:47:42.586Z,92.70
2024-01-12T12:50:11.018Z,92.70
2024-01-12T12:52:39.406Z,92.80
2024-01-12T12:55:08.095Z,92.90
2024-01-12T12:57:35.972Z,92.90
2024-01-12T13:00:05.604Z,92.90
2024-01-12T13:02:32.855Z,93.20
2024-01-12T13:05:00.009Z,93.20
2024-01-12T13:07:27.077Z,93.30
2024-01-12T13:09:57.074Z,93.60
2024-01-12T13:12:25.337Z,93.70
2024-01-12T13:14:52.803Z,93.90
2024-01-12T13:17:21.887Z,94.10
2024-01-12T13:19:49.325Z,94.20
2024-01-12T13:22:16.746Z,94.30
2024-01-12T13:24:44.375Z,94.30
2024-01-12T13:27:12.469Z,94.50
2024-01-12T13:29:39.680Z,94.60
2024-01-12T13:32:06.953Z,94.80
2024-01-12T13:34:34.246Z,94.80
2024-01-12T13:37:03.003Z,94.90
2024-01-12T13:39:31.356Z,95.00
2024-01-12T13:42:02.294Z,95.00
2024-01-12T13:44:29.585Z,95.00
2024-01-12T13:46:56.913Z,95.10
2024-01-12T13:49:24.739Z,95.30
2024-01-12T13:51:52.189Z,95.30
2024-01-12T13:54:19.893Z,95.30
2024-01-12T13:56:47.232Z,95.30
2024-01-12T13:59:15.443Z,95.40
2024-01-12T14:01:42.684Z,95.40
2024-01-12T14:04:12.381Z,95.40
2024-01-12T14:06:41.530Z,95.60
2024-01-12T14:09:10.483Z,95.60
2024-01-12T14:11:38.204Z,95.70
2024-01-12T14:14:05.650Z,95.70
2024-01-12T14:16:33.142Z,95.70
2024-01-12T14:19:00.546Z,95.70
2024-01-12T14:21:27.840Z,95.50
2024-01-12T14:23:55.563Z,95.50
2024-01-12T14:26:23.032Z,95.50
2024-01-12T14:28:50.216Z,95.60
2024-01-12T14:31:17.717Z,95.60
2024-01-12T14:33:47.234Z,95.50
2024-01-12T14:36:15.003Z,95.40
2024-01-12T14:38:43.580Z,95.50
2024-01-12T14:41:10.884Z,95.60
2024-01-12T14:43:38.026Z,95.50
2024-01-12T14:46:05.469Z,95.60
2024-01-12T14:48:34.900Z,95.70
2024-01-12T14:51:03.148Z,95.90
2024-01-12T14:53:31.762Z,96.20
2024-01-12T14:55:59.288Z,96.00
2024-01-12T14:58:26.465Z,94.60
2024-01-12T15:00:53.662Z,93.40
2024-01-12T15:03:20.967Z,93.70
2024-01-12T15:05:48.193Z,93.80
2024-01-12T15:08:18.635Z,93.40
2024-01-12T15:10:47.845Z,93.20
2024-01-12T15:13:15.526Z,93.40
2024-01-12T15:15:43.326Z,93.70
2024-01-12T15:18:11.639Z,94.10
2024-01-12T15:20:38.871Z,94.10
2024-01-12T15:23:07.757Z,93.90
2024-01-12T15:25:35.429Z,93.80
2024-01-12T15:28:02.683Z,94.00
2024-01-12T15:30:29.869Z,94.20
2024-01-12T15:32:57.437Z,94.40
2024-01-12T15:35:24.723Z,94.60
2024-01-12T15:37:51.864Z,94.70
2024-01-12T15:40:18.955Z,94.90
2024-01-12T15:42:49.543Z,95.10
2024-01-12T15:45:17.933Z,95.30
2024-01-12T15:47:45.523Z,95.60
2024-01-12T15:50:13.313Z,95.80
2024-01-12T15:52:40.548Z,96.30
2024-01-12T15:55:09.485Z,96.20
2024-01-12T15:57:36.865Z,96.50
2024-01-12T16:00:05.355Z,96.80
2024-01-12T16:02:33.256Z,96.80
2024-01-12T16:05:00.607Z,96.90
2024-01-12T16:07:28.979Z,97.40
2024-01-12T16:09:56.431Z,97.40
2024-01-12T16:12:23.708Z,97.50
2024-01-12T16:14:52.346Z,97.60
2024-01-12T16:17:19.460Z,97.80
2024-01-12T16:19:50.365Z,98.20
2024-01-12T16:22:17.748Z,98.40
2024-01-12T16:24:45.914Z,98.90
2024-01-12T16:27:17.021Z,98.80
2024-01-12T16:29:45.005Z,99.00
2024-01-12T16:32:12.380Z,99.30
2024-01-12T16:34:39.647Z,99.60
2024-01-12T16:37:06.829Z,99.80
2024-01-12T16:39:33.944Z,99.90
2024-01-12T16:42:01.230Z,99.90
2024-01-12T16:44:31.509Z,99.90
2024-01-12T16:46:58.795Z,99.90
2024-01-12T16:49:26.156Z,99.90
2024-01-12T16:51:53.325Z,99.90
2024-01-12T16:54:20.664Z,99.90
2024-01-12T16:56:47.749Z,99.90
2024-01-12T16:59:14.896Z,99.90
2024-01-12T17:01:42.007Z,92.10
2024-01-12T17:04:09.252Z,93.00
2024-01-12T17:06:40.963Z,95.10
2024-01-12T17:09:12.139Z,96.50
2024-01-12T17:11:46.488Z,97.10
2024-01-12T17:14:13.874Z,97.20
2024-01-12T17:16:44.607Z,97.20
2024-01-12T17:19:12.067Z,97.40
2024-01-12T17:21:39.410Z,97.50
2024-01-12T17:24:06.930Z,97.60
2024-01-12T17:26:34.885Z,97.70
2024-01-12T17:29:02.251Z,97.90
2024-01-12T17:31:29.941Z,98.20
2024-01-12T17:33:57.394Z,98.30
2024-01-12T17:36:24.586Z,98.50
2024-01-12T17:38:51.702Z,98.70
2024-01-12T17:41:23.465Z,98.90
2024-01-12T17:43:50.812Z,99.00
2024-01-12T17:46:17.945Z,99.20
2024-01-12T17:48:45.393Z,99.20
2024-01-12T17:51:16.328Z,99.30
2024-01-12T17:53:44.284Z,99.30
2024-01-12T17:56:12.252Z,99.50
2024-01-12T17:58:39.357Z,99.50
2024-01-12T18:01:06.467Z,99.50
2024-01-12T18:03:33.704Z,99.60
2024-01-12T18:06:04.270Z,99.60
2024-01-12T18:08:31.606Z,99.70
2024-01-12T18:10:59.077Z,99.80
2024-01-12T18:13:26.462Z,99.90
2024-01-12T18:15:53.685Z,99.90
2024-01-12T18:18:21.037Z,99.90
2024-01-12T18:20:48.299Z,99.90
2024-01-12T18:23:15.432Z,99.90
2024-01-12T18:25:42.593Z,99.90
2024-01-12T18:28:09.684Z,99.90
2024-01-12T18:30:36.925Z,99.90
2024-01-12T18:33:04.605Z,99.90
2024-01-12T18:35:31.850Z,99.90
2024-01-12T18:37:58.921Z,99.90
2024-01-12T18:40:26.035Z,99.90
2024-01-12T18:42:53.096Z,99.90
2024-01-12T18:45:20.251Z,99.90
2024-01-12T18:47:47.519Z,99.90
2024-01-12T18:50:14.728Z,99.90
2024-01-12T18:52:44.856Z,99.90
2024-01-12T18:55:11.985Z,99.90
2024-01-12T18:57:39.151Z,99.90
2024-01-12T19:00:07.110Z,99.90
2024-01-12T19:02:34.231Z,99.90
2024-01-12T19:05:01.505Z,99.90
2024-01-12T19:07:29.191Z,99.90
2024-01-12T19:09:56.460Z,99.90
2024-01-12T19:12:23.627Z,99.90
2024-01-12T19:14:50.906Z,99.90
2024-01-12T19:17:18.002Z,99.90
2024-01-12T19:19:45.412Z,99.90
2024-01-12T19:22:12.523Z,99.90
2024-01-12T19:24:44.509Z,99.90
2024-01-12T19:27:12.101Z,99.90
2024-01-12T19:29:39.337Z,99.90
2024-01-12T19:32:06.902Z,99.90
2024-01-12T19:34:34.001Z,99.90
2024-01-12T19:37:01.138Z,99.90
2024-01-12T19:39:29.465Z,99.90
2024-01-12T19:41:58.953Z,99.90
2024-01-12T19:44:26.186Z,99.90
2024-01-12T19:46:53.279Z,99.90
2024-01-12T19:49:20.545Z,99.90
2024-01-12T19:51:47.698Z,99.90
2024-01-12T19:54:14.800Z,99.90
2024-01-12T19:56:41.896Z,99.90
2024-01-12T19:59:10.365Z,99.90
2024-01-12T20:01:37.499Z,99.90
2024-01-12T20:04:04.908Z,99.90
2024-01-12T20:06:32.428Z,99.90
2024-01-12T20:08:59.693Z,99.90
2024-01-12T20:11:27.025Z,99.90
2024-01-12T20:13:54.186Z,99.90
2024-01-12T20:16:22.674Z,99.90
2024-01-12T20:18:50.716Z,99.90
2024-01-12T20:21:18.342Z,99.90
2024-01-12T20:23:45.563Z,99.90
2024-01-12T20:26:12.786Z,99.90
2024-01-12T20:28:40.229Z,99.90
2024-01-12T20:31:07.469Z,99.90
2024-01-12T20:33:37.508Z,99.90
2024-01-12T20:36:06.676Z,99.90
2024-01-12T20:38:33.976Z,99.90
2024-01-12T20:41:04.083Z,99.90
2024-01-12T20:43:31.406Z,99.90
2024-01-12T20:45:58.644Z,99.90
2024-01-12T20:48:25.978Z,99.90
2024-01-12T20:50:54.714Z,99.90
2024-01-12T20:53:22.294Z,99.90
2024-01-12T20:55:49.379Z,99.90
2024-01-12T20:58:16.548Z,99.90
2024-01-12T21:00:43.717Z,99.90
2024-01-12T21:03:10.918Z,99.90
2024-01-12T21:05:38.185Z,99.90
2024-01-12T21:08:05.743Z,99.90
2024-01-12T21:10:32.908Z,99.90
2024-01-12T21:13:00.058Z,99.90
2024-01-12T21:15:27.162Z,99.90
2024-01-12T21:17:54.463Z,99.90
2024-01-12T21:20:21.610Z,99.90
2024-01-12T21:22:49.074Z,99.90
2024-01-12T21:25:16.240Z,99.90
2024-01-12T21:27:43.306Z,99.90
2024-01-12T21:30:11.168Z,99.90
2024-01-12T21:32:38.465Z,99.90
2024-01-12T21:35:06.210Z,99.90
2024-01-12T21:37:33.994Z,99.90
2024-01-12T21:40:01.190Z,99.90
2024-01-12T21:42:28.241Z,99.90
2024-01-12T21:44:57.619Z,99.90
2024-01-12T21:47:25.629Z,99.90
2024-01-12T21:49:52.860Z,99.90
2024-01-12T21:52:20.009Z,99.90
2024-01-12T21:54:47.116Z,99.90
2024-01-12T21:57:14.302Z,99.90
2024-01-12T21:59:41.545Z,99.90
2024-01-12T22:02:08.687Z,99.90
2024-01-12T22:04:35.758Z,99.90
2024-01-12T22:07:02.883Z,99.90
2024-01-12T22:09:31.206Z,99.90
2024-01-12T22:11:58.367Z,99.90
2024-01-12T22:14:25.511Z,99.90
2024-01-12T22:16:52.608Z,99.90
2024-01-12T22:19:19.888Z,99.90
2024-01-12T22:21:47.521Z,99.90
2024-01-12T22:24:16.977Z,94.90
2024-01-12T22:26:44.522Z,91.60
2024-01-12T22:29:11.674Z,94.10
2024-01-12T22:31:38.721Z,97.80
2024-01-12T22:34:06.007Z,99.20
2024-01-12T22:36:34.498Z,99.70
2024-01-12T22:39:01.786Z,99.90
2024-01-12T22:41:29.013Z,99.70
2024-01-12T22:43:56.119Z,90.00
2024-01-12T22:46:23.293Z,91.10
2024-01-12T22:48:50.534Z,95.00
2024-01-12T22:51:17.780Z,96.60
2024-01-12T22:53:44.939Z,96.90
2024-01-12T22:56:13.309Z,96.80
2024-01-12T22:58:41.129Z,96.90
2024-01-12T23:01:08.287Z,94.40
2024-01-12T23:03:35.639Z,93.50
2024-01-12T23:06:03.259Z,93.00
2024-01-12T23:08:30.448Z,92.90
2024-01-12T23:10:57.577Z,93.30
2024-01-12T23:13:24.685Z,93.50
2024-01-12T23:15:51.830Z,93.70
2024-01-12T23:18:19.134Z,93.50
2024-01-12T23:20:46.430Z,93.30
2024-01-12T23:23:13.815Z,94.20
2024-01-12T23:25:40.873Z,93.50
2024-01-12T23:28:07.983Z,93.10
2024-01-12T23:30:35.339Z,93.10
2024-01-12T23:33:02.729Z,93.30
2024-01-12T23:35:30.044Z,93.40
2024-01-12T23:37:57.155Z,93.60
2024-01-12T23:40:24.204Z,93.80
2024-01-12T23:42:51.289Z,94.00
2024-01-12T23:45:18.685Z,94.20
2024-01-12T23:47:45.949Z,94.40
2024-01-12T23:50:13.229Z,94.70
2024-01-12T23:52:40.444Z,95.00
2024-01-12T23:55:10.920Z,95.20
2024-01-12T23:57:38.031Z,95.30
